sensor_id;sensor_type;location;lat;lon;timestamp;P1;durP1;ratioP1;P2;durP2;ratioP2
28335;SDS011;15592;53.656;7.276;2023-05-07T00:01:42;27.17;;;19.23;;
28335;SDS011;15592;53.656;7.276;2023-05-07T00:04:08;27.52;;;19.80;;
28335;SDS011;15592;53.656;7.276;2023-05-07T00:06:33;26.58;;;18.20;;
28335;SDS011;15592;53.656;7.276;2023-05-07T00:08:59;32.08;;;20.58;;
28335;SDS011;15592;53.656;7.276;2023-05-07T00:11:26;29.15;;;20.10;;
28335;SDS011;15592;53.656;7.276;2023-05-07T00:13:52;32.42;;;21.45;;
28335;SDS011;15592;53.656;7.276;2023-05-07T00:16:17;31.55;;;20.70;;
28335;SDS011;15592;53.656;7.276;2023-05-07T00:18:43;35.38;;;22.02;;
28335;SDS011;15592;53.656;7.276;2023-05-07T00:21:09;34.08;;;22.40;;
28335;SDS011;15592;53.656;7.276;2023-05-07T00:23:34;29.13;;;20.30;;
28335;SDS011;15592;53.656;7.276;2023-05-07T00:26:00;31.30;;;20.65;;
28335;SDS011;15592;53.656;7.276;2023-05-07T00:28:26;30.50;;;19.48;;
28335;SDS011;15592;53.656;7.276;2023-05-07T00:30:52;29.75;;;20.52;;
28335;SDS011;15592;53.656;7.276;2023-05-07T00:33:17;31.55;;;21.08;;
28335;SDS011;15592;53.656;7.276;2023-05-07T00:35:45;33.97;;;21.63;;
28335;SDS011;15592;53.656;7.276;2023-05-07T00:38:10;32.70;;;22.00;;
28335;SDS011;15592;53.656;7.276;2023-05-07T00:40:36;32.28;;;20.63;;
28335;SDS011;15592;53.656;7.276;2023-05-07T00:43:02;33.13;;;20.15;;
28335;SDS011;15592;53.656;7.276;2023-05-07T00:45:27;33.60;;;20.95;;
28335;SDS011;15592;53.656;7.276;2023-05-07T00:47:57;34.25;;;22.23;;
28335;SDS011;15592;53.656;7.276;2023-05-07T00:50:24;34.45;;;21.98;;
28335;SDS011;15592;53.656;7.276;2023-05-07T00:52:51;35.60;;;23.25;;
28335;SDS011;15592;53.656;7.276;2023-05-07T00:55:17;35.63;;;23.25;;
28335;SDS011;15592;53.656;7.276;2023-05-07T00:57:43;38.33;;;24.52;;
28335;SDS011;15592;53.656;7.276;2023-05-07T01:00:09;35.20;;;23.77;;
28335;SDS011;15592;53.656;7.276;2023-05-07T01:02:38;38.22;;;23.38;;
28335;SDS011;15592;53.656;7.276;2023-05-07T01:05:04;37.67;;;24.40;;
28335;SDS011;15592;53.656;7.276;2023-05-07T01:07:32;35.58;;;23.33;;
28335;SDS011;15592;53.656;7.276;2023-05-07T01:09:59;35.63;;;23.30;;
28335;SDS011;15592;53.656;7.276;2023-05-07T01:12:26;33.78;;;23.27;;
28335;SDS011;15592;53.656;7.276;2023-05-07T01:14:53;38.85;;;23.98;;
28335;SDS011;15592;53.656;7.276;2023-05-07T01:17:19;38.08;;;24.52;;
28335;SDS011;15592;53.656;7.276;2023-05-07T01:19:45;41.80;;;25.13;;
28335;SDS011;15592;53.656;7.276;2023-05-07T01:22:12;41.20;;;23.85;;
28335;SDS011;15592;53.656;7.276;2023-05-07T01:24:41;39.55;;;26.52;;
28335;SDS011;15592;53.656;7.276;2023-05-07T01:27:07;42.60;;;25.88;;
28335;SDS011;15592;53.656;7.276;2023-05-07T01:29:33;44.05;;;27.40;;
28335;SDS011;15592;53.656;7.276;2023-05-07T01:31:59;40.45;;;27.05;;
28335;SDS011;15592;53.656;7.276;2023-05-07T01:34:26;43.55;;;28.05;;
28335;SDS011;15592;53.656;7.276;2023-05-07T01:36:54;42.20;;;26.27;;
28335;SDS011;15592;53.656;7.276;2023-05-07T01:39:21;46.78;;;27.63;;
28335;SDS011;15592;53.656;7.276;2023-05-07T01:41:49;47.90;;;28.17;;
28335;SDS011;15592;53.656;7.276;2023-05-07T01:44:15;40.15;;;26.60;;
28335;SDS011;15592;53.656;7.276;2023-05-07T01:46:41;43.13;;;26.85;;
28335;SDS011;15592;53.656;7.276;2023-05-07T01:49:07;44.10;;;27.52;;
28335;SDS011;15592;53.656;7.276;2023-05-07T01:51:33;45.95;;;28.38;;
28335;SDS011;15592;53.656;7.276;2023-05-07T01:53:59;45.13;;;27.88;;
28335;SDS011;15592;53.656;7.276;2023-05-07T01:56:25;43.22;;;26.63;;
28335;SDS011;15592;53.656;7.276;2023-05-07T01:58:51;40.10;;;25.75;;
28335;SDS011;15592;53.656;7.276;2023-05-07T02:01:17;43.05;;;26.45;;
28335;SDS011;15592;53.656;7.276;2023-05-07T02:03:43;40.85;;;27.00;;
28335;SDS011;15592;53.656;7.276;2023-05-07T02:06:09;38.03;;;25.17;;
28335;SDS011;15592;53.656;7.276;2023-05-07T02:08:35;39.00;;;24.92;;
28335;SDS011;15592;53.656;7.276;2023-05-07T02:11:00;39.78;;;24.23;;
28335;SDS011;15592;53.656;7.276;2023-05-07T02:13:28;38.95;;;25.80;;
28335;SDS011;15592;53.656;7.276;2023-05-07T02:15:55;39.35;;;25.40;;
28335;SDS011;15592;53.656;7.276;2023-05-07T02:18:20;41.95;;;24.42;;
28335;SDS011;15592;53.656;7.276;2023-05-07T02:20:46;43.13;;;26.80;;
28335;SDS011;15592;53.656;7.276;2023-05-07T02:23:11;47.03;;;28.23;;
28335;SDS011;15592;53.656;7.276;2023-05-07T02:25:37;41.53;;;26.80;;
28335;SDS011;15592;53.656;7.276;2023-05-07T02:28:03;43.30;;;27.40;;
28335;SDS011;15592;53.656;7.276;2023-05-07T02:30:29;42.50;;;26.98;;
28335;SDS011;15592;53.656;7.276;2023-05-07T02:32:54;45.00;;;27.20;;
28335;SDS011;15592;53.656;7.276;2023-05-07T02:35:20;42.17;;;27.35;;
28335;SDS011;15592;53.656;7.276;2023-05-07T02:37:45;44.10;;;27.40;;
28335;SDS011;15592;53.656;7.276;2023-05-07T02:40:11;45.90;;;27.75;;
28335;SDS011;15592;53.656;7.276;2023-05-07T02:42:37;43.13;;;26.83;;
28335;SDS011;15592;53.656;7.276;2023-05-07T02:45:02;43.35;;;27.17;;
28335;SDS011;15592;53.656;7.276;2023-05-07T02:47:28;42.00;;;26.02;;
28335;SDS011;15592;53.656;7.276;2023-05-07T02:49:54;43.20;;;26.73;;
28335;SDS011;15592;53.656;7.276;2023-05-07T02:52:20;43.50;;;27.73;;
28335;SDS011;15592;53.656;7.276;2023-05-07T02:54:46;41.80;;;26.65;;
28335;SDS011;15592;53.656;7.276;2023-05-07T02:57:12;43.95;;;27.67;;
28335;SDS011;15592;53.656;7.276;2023-05-07T02:59:37;39.13;;;25.70;;
28335;SDS011;15592;53.656;7.276;2023-05-07T03:02:03;38.88;;;25.92;;
28335;SDS011;15592;53.656;7.276;2023-05-07T03:04:29;38.83;;;26.20;;
28335;SDS011;15592;53.656;7.276;2023-05-07T03:06:54;39.05;;;25.13;;
28335;SDS011;15592;53.656;7.276;2023-05-07T03:09:20;41.10;;;27.65;;
28335;SDS011;15592;53.656;7.276;2023-05-07T03:11:45;42.80;;;27.48;;
28335;SDS011;15592;53.656;7.276;2023-05-07T03:14:11;43.72;;;27.98;;
28335;SDS011;15592;53.656;7.276;2023-05-07T03:16:37;41.35;;;26.33;;
28335;SDS011;15592;53.656;7.276;2023-05-07T03:19:03;43.22;;;27.75;;
28335;SDS011;15592;53.656;7.276;2023-05-07T03:21:29;45.60;;;28.35;;
28335;SDS011;15592;53.656;7.276;2023-05-07T03:23:55;47.03;;;28.70;;
28335;SDS011;15592;53.656;7.276;2023-05-07T03:26:21;42.50;;;27.55;;
28335;SDS011;15592;53.656;7.276;2023-05-07T03:28:47;41.33;;;26.80;;
28335;SDS011;15592;53.656;7.276;2023-05-07T03:31:12;43.13;;;27.05;;
28335;SDS011;15592;53.656;7.276;2023-05-07T03:33:39;44.00;;;28.20;;
28335;SDS011;15592;53.656;7.276;2023-05-07T03:36:21;44.08;;;27.65;;
28335;SDS011;15592;53.656;7.276;2023-05-07T03:38:47;43.28;;;28.92;;
28335;SDS011;15592;53.656;7.276;2023-05-07T03:41:13;45.38;;;28.35;;
28335;SDS011;15592;53.656;7.276;2023-05-07T03:43:39;43.55;;;27.88;;
28335;SDS011;15592;53.656;7.276;2023-05-07T03:46:05;44.92;;;28.17;;
28335;SDS011;15592;53.656;7.276;2023-05-07T03:48:30;45.13;;;27.58;;
28335;SDS011;15592;53.656;7.276;2023-05-07T03:50:59;48.63;;;28.95;;
28335;SDS011;15592;53.656;7.276;2023-05-07T03:53:25;43.33;;;27.52;;
28335;SDS011;15592;53.656;7.276;2023-05-07T03:55:50;44.00;;;28.40;;
28335;SDS011;15592;53.656;7.276;2023-05-07T03:58:16;42.00;;;27.08;;
28335;SDS011;15592;53.656;7.276;2023-05-07T04:00:41;41.13;;;26.33;;
28335;SDS011;15592;53.656;7.276;2023-05-07T04:03:07;37.65;;;25.23;;
28335;SDS011;15592;53.656;7.276;2023-05-07T04:05:33;40.08;;;27.25;;
28335;SDS011;15592;53.656;7.276;2023-05-07T04:07:59;39.85;;;25.77;;
28335;SDS011;15592;53.656;7.276;2023-05-07T04:10:25;42.90;;;26.85;;
28335;SDS011;15592;53.656;7.276;2023-05-07T04:12:50;42.50;;;27.60;;
28335;SDS011;15592;53.656;7.276;2023-05-07T04:15:16;42.72;;;26.83;;
28335;SDS011;15592;53.656;7.276;2023-05-07T04:17:42;44.45;;;28.25;;
28335;SDS011;15592;53.656;7.276;2023-05-07T04:20:13;48.20;;;30.23;;
28335;SDS011;15592;53.656;7.276;2023-05-07T04:22:40;45.05;;;28.10;;
28335;SDS011;15592;53.656;7.276;2023-05-07T04:25:06;44.67;;;27.42;;
28335;SDS011;15592;53.656;7.276;2023-05-07T04:27:34;44.90;;;28.65;;
28335;SDS011;15592;53.656;7.276;2023-05-07T04:29:59;44.50;;;27.15;;
28335;SDS011;15592;53.656;7.276;2023-05-07T04:32:25;39.78;;;26.75;;
28335;SDS011;15592;53.656;7.276;2023-05-07T04:34:54;40.10;;;25.55;;
28335;SDS011;15592;53.656;7.276;2023-05-07T04:37:20;37.35;;;25.67;;
28335;SDS011;15592;53.656;7.276;2023-05-07T04:39:46;38.60;;;26.05;;
28335;SDS011;15592;53.656;7.276;2023-05-07T04:42:14;42.67;;;26.27;;
28335;SDS011;15592;53.656;7.276;2023-05-07T04:44:40;38.80;;;26.10;;
28335;SDS011;15592;53.656;7.276;2023-05-07T04:47:06;37.88;;;24.98;;
28335;SDS011;15592;53.656;7.276;2023-05-07T04:49:31;40.50;;;25.50;;
28335;SDS011;15592;53.656;7.276;2023-05-07T04:51:57;41.83;;;26.17;;
28335;SDS011;15592;53.656;7.276;2023-05-07T04:54:22;39.35;;;26.38;;
28335;SDS011;15592;53.656;7.276;2023-05-07T04:56:48;41.40;;;26.25;;
28335;SDS011;15592;53.656;7.276;2023-05-07T04:59:13;41.17;;;25.67;;
28335;SDS011;15592;53.656;7.276;2023-05-07T05:01:39;39.63;;;25.55;;
28335;SDS011;15592;53.656;7.276;2023-05-07T05:04:05;42.67;;;26.13;;
28335;SDS011;15592;53.656;7.276;2023-05-07T05:06:31;42.85;;;25.50;;
28335;SDS011;15592;53.656;7.276;2023-05-07T05:08:57;39.22;;;25.30;;
28335;SDS011;15592;53.656;7.276;2023-05-07T05:11:22;39.15;;;24.65;;
28335;SDS011;15592;53.656;7.276;2023-05-07T05:13:48;38.83;;;25.20;;
28335;SDS011;15592;53.656;7.276;2023-05-07T05:16:14;40.85;;;25.88;;
28335;SDS011;15592;53.656;7.276;2023-05-07T05:18:40;38.10;;;24.42;;
28335;SDS011;15592;53.656;7.276;2023-05-07T05:21:06;35.78;;;24.17;;
28335;SDS011;15592;53.656;7.276;2023-05-07T05:23:31;35.72;;;23.35;;
28335;SDS011;15592;53.656;7.276;2023-05-07T05:25:57;34.92;;;22.80;;
28335;SDS011;15592;53.656;7.276;2023-05-07T05:28:23;34.53;;;22.15;;
28335;SDS011;15592;53.656;7.276;2023-05-07T05:30:49;33.00;;;23.00;;
28335;SDS011;15592;53.656;7.276;2023-05-07T05:33:15;32.35;;;21.88;;
28335;SDS011;15592;53.656;7.276;2023-05-07T05:35:40;32.88;;;22.55;;
28335;SDS011;15592;53.656;7.276;2023-05-07T05:38:06;30.92;;;21.30;;
28335;SDS011;15592;53.656;7.276;2023-05-07T05:40:32;33.25;;;21.40;;
28335;SDS011;15592;53.656;7.276;2023-05-07T05:42:58;31.70;;;21.75;;
28335;SDS011;15592;53.656;7.276;2023-05-07T05:45:24;30.63;;;22.13;;
28335;SDS011;15592;53.656;7.276;2023-05-07T05:47:50;32.53;;;21.30;;
28335;SDS011;15592;53.656;7.276;2023-05-07T05:50:16;30.40;;;20.63;;
28335;SDS011;15592;53.656;7.276;2023-05-07T05:52:41;32.05;;;21.02;;
28335;SDS011;15592;53.656;7.276;2023-05-07T05:55:07;27.55;;;19.33;;
28335;SDS011;15592;53.656;7.276;2023-05-07T05:57:33;31.23;;;21.30;;
28335;SDS011;15592;53.656;7.276;2023-05-07T05:59:59;28.98;;;20.48;;
28335;SDS011;15592;53.656;7.276;2023-05-07T06:02:26;31.85;;;20.92;;
28335;SDS011;15592;53.656;7.276;2023-05-07T06:04:51;31.02;;;21.15;;
28335;SDS011;15592;53.656;7.276;2023-05-07T06:07:17;32.92;;;22.13;;
28335;SDS011;15592;53.656;7.276;2023-05-07T06:09:43;34.05;;;21.58;;
28335;SDS011;15592;53.656;7.276;2023-05-07T06:12:09;33.47;;;21.45;;
28335;SDS011;15592;53.656;7.276;2023-05-07T06:14:34;32.33;;;21.48;;
28335;SDS011;15592;53.656;7.276;2023-05-07T06:17:00;33.90;;;21.88;;
28335;SDS011;15592;53.656;7.276;2023-05-07T06:19:25;31.88;;;21.40;;
28335;SDS011;15592;53.656;7.276;2023-05-07T06:21:53;30.67;;;21.05;;
28335;SDS011;15592;53.656;7.276;2023-05-07T06:24:18;34.65;;;22.77;;
28335;SDS011;15592;53.656;7.276;2023-05-07T06:26:44;32.28;;;21.00;;
28335;SDS011;15592;53.656;7.276;2023-05-07T06:29:10;32.75;;;20.52;;
28335;SDS011;15592;53.656;7.276;2023-05-07T06:31:35;29.25;;;19.30;;
28335;SDS011;15592;53.656;7.276;2023-05-07T06:34:01;28.88;;;19.83;;
28335;SDS011;15592;53.656;7.276;2023-05-07T06:36:27;29.60;;;19.63;;
28335;SDS011;15592;53.656;7.276;2023-05-07T06:38:53;29.05;;;18.80;;
28335;SDS011;15592;53.656;7.276;2023-05-07T06:41:18;27.90;;;18.83;;
28335;SDS011;15592;53.656;7.276;2023-05-07T06:43:45;26.63;;;18.77;;
28335;SDS011;15592;53.656;7.276;2023-05-07T06:46:11;26.48;;;18.25;;
28335;SDS011;15592;53.656;7.276;2023-05-07T06:48:36;28.23;;;18.08;;
28335;SDS011;15592;53.656;7.276;2023-05-07T06:51:02;24.88;;;17.52;;
28335;SDS011;15592;53.656;7.276;2023-05-07T06:53:28;26.33;;;18.23;;
28335;SDS011;15592;53.656;7.276;2023-05-07T06:55:55;28.10;;;17.75;;
28335;SDS011;15592;53.656;7.276;2023-05-07T06:58:21;24.10;;;17.33;;
28335;SDS011;15592;53.656;7.276;2023-05-07T07:00:47;26.33;;;17.65;;
28335;SDS011;15592;53.656;7.276;2023-05-07T07:03:13;29.92;;;18.40;;
28335;SDS011;15592;53.656;7.276;2023-05-07T07:05:40;29.67;;;18.80;;
28335;SDS011;15592;53.656;7.276;2023-05-07T07:08:06;27.73;;;17.23;;
28335;SDS011;15592;53.656;7.276;2023-05-07T07:10:31;27.15;;;18.02;;
28335;SDS011;15592;53.656;7.276;2023-05-07T07:12:57;23.58;;;16.77;;
28335;SDS011;15592;53.656;7.276;2023-05-07T07:15:23;25.20;;;17.52;;
28335;SDS011;15592;53.656;7.276;2023-05-07T07:17:50;26.38;;;17.88;;
28335;SDS011;15592;53.656;7.276;2023-05-07T07:20:15;26.42;;;17.90;;
28335;SDS011;15592;53.656;7.276;2023-05-07T07:22:41;23.70;;;17.17;;
28335;SDS011;15592;53.656;7.276;2023-05-07T07:25:07;27.73;;;16.90;;
28335;SDS011;15592;53.656;7.276;2023-05-07T07:27:33;24.73;;;16.45;;
28335;SDS011;15592;53.656;7.276;2023-05-07T07:29:58;24.25;;;15.82;;
28335;SDS011;15592;53.656;7.276;2023-05-07T07:32:24;22.90;;;15.32;;
28335;SDS011;15592;53.656;7.276;2023-05-07T07:34:50;21.27;;;15.52;;
28335;SDS011;15592;53.656;7.276;2023-05-07T07:37:16;23.38;;;16.60;;
28335;SDS011;15592;53.656;7.276;2023-05-07T07:39:41;20.60;;;15.02;;
28335;SDS011;15592;53.656;7.276;2023-05-07T07:42:07;20.52;;;14.88;;
28335;SDS011;15592;53.656;7.276;2023-05-07T07:44:33;22.17;;;15.65;;
28335;SDS011;15592;53.656;7.276;2023-05-07T07:46:58;24.30;;;15.23;;
28335;SDS011;15592;53.656;7.276;2023-05-07T07:49:24;22.13;;;14.75;;
28335;SDS011;15592;53.656;7.276;2023-05-07T07:51:49;24.00;;;15.90;;
28335;SDS011;15592;53.656;7.276;2023-05-07T07:54:16;22.85;;;15.57;;
28335;SDS011;15592;53.656;7.276;2023-05-07T07:56:41;21.05;;;14.18;;
28335;SDS011;15592;53.656;7.276;2023-05-07T07:59:07;19.10;;;13.70;;
28335;SDS011;15592;53.656;7.276;2023-05-07T08:01:33;20.75;;;14.25;;
28335;SDS011;15592;53.656;7.276;2023-05-07T08:03:58;22.58;;;15.32;;
28335;SDS011;15592;53.656;7.276;2023-05-07T08:06:24;23.52;;;14.95;;
28335;SDS011;15592;53.656;7.276;2023-05-07T08:08:51;19.33;;;14.88;;
28335;SDS011;15592;53.656;7.276;2023-05-07T08:11:16;24.10;;;15.93;;
28335;SDS011;15592;53.656;7.276;2023-05-07T08:13:42;22.10;;;15.82;;
28335;SDS011;15592;53.656;7.276;2023-05-07T08:16:08;20.83;;;14.73;;
28335;SDS011;15592;53.656;7.276;2023-05-07T08:18:34;20.25;;;14.43;;
28335;SDS011;15592;53.656;7.276;2023-05-07T08:21:00;22.08;;;15.00;;
28335;SDS011;15592;53.656;7.276;2023-05-07T08:23:26;22.65;;;16.35;;
28335;SDS011;15592;53.656;7.276;2023-05-07T08:25:52;24.33;;;17.10;;
28335;SDS011;15592;53.656;7.276;2023-05-07T08:28:18;20.80;;;15.60;;
28335;SDS011;15592;53.656;7.276;2023-05-07T08:30:44;19.58;;;14.60;;
28335;SDS011;15592;53.656;7.276;2023-05-07T08:33:10;23.52;;;16.23;;
28335;SDS011;15592;53.656;7.276;2023-05-07T08:35:36;23.05;;;16.17;;
28335;SDS011;15592;53.656;7.276;2023-05-07T08:38:01;22.60;;;15.75;;
28335;SDS011;15592;53.656;7.276;2023-05-07T08:40:27;24.90;;;16.77;;
28335;SDS011;15592;53.656;7.276;2023-05-07T08:42:53;22.65;;;15.85;;
28335;SDS011;15592;53.656;7.276;2023-05-07T08:45:20;23.25;;;16.83;;
28335;SDS011;15592;53.656;7.276;2023-05-07T08:47:54;21.17;;;16.08;;
28335;SDS011;15592;53.656;7.276;2023-05-07T08:50:23;24.10;;;16.70;;
28335;SDS011;15592;53.656;7.276;2023-05-07T08:52:49;25.13;;;16.98;;
28335;SDS011;15592;53.656;7.276;2023-05-07T08:55:15;25.02;;;17.10;;
28335;SDS011;15592;53.656;7.276;2023-05-07T08:57:42;22.50;;;17.33;;
28335;SDS011;15592;53.656;7.276;2023-05-07T09:00:07;24.42;;;16.70;;
28335;SDS011;15592;53.656;7.276;2023-05-07T09:02:35;23.45;;;17.05;;
28335;SDS011;15592;53.656;7.276;2023-05-07T09:05:01;20.40;;;15.55;;
28335;SDS011;15592;53.656;7.276;2023-05-07T09:07:27;24.30;;;16.70;;
28335;SDS011;15592;53.656;7.276;2023-05-07T09:09:53;22.85;;;16.70;;
28335;SDS011;15592;53.656;7.276;2023-05-07T09:12:20;22.17;;;16.98;;
28335;SDS011;15592;53.656;7.276;2023-05-07T09:14:46;22.58;;;16.42;;
28335;SDS011;15592;53.656;7.276;2023-05-07T09:17:12;22.25;;;16.25;;
28335;SDS011;15592;53.656;7.276;2023-05-07T09:19:38;24.00;;;17.75;;
28335;SDS011;15592;53.656;7.276;2023-05-07T09:22:04;23.00;;;18.23;;
28335;SDS011;15592;53.656;7.276;2023-05-07T09:24:32;21.33;;;16.45;;
28335;SDS011;15592;53.656;7.276;2023-05-07T09:27:02;22.27;;;16.45;;
28335;SDS011;15592;53.656;7.276;2023-05-07T09:29:28;23.13;;;17.67;;
28335;SDS011;15592;53.656;7.276;2023-05-07T09:31:55;21.70;;;16.23;;
28335;SDS011;15592;53.656;7.276;2023-05-07T09:34:21;19.77;;;15.98;;
28335;SDS011;15592;53.656;7.276;2023-05-07T09:36:47;23.65;;;16.63;;
28335;SDS011;15592;53.656;7.276;2023-05-07T09:39:13;19.50;;;16.48;;
28335;SDS011;15592;53.656;7.276;2023-05-07T09:41:45;20.70;;;16.15;;
28335;SDS011;15592;53.656;7.276;2023-05-07T09:44:12;22.67;;;15.38;;
28335;SDS011;15592;53.656;7.276;2023-05-07T09:46:39;19.33;;;15.60;;
28335;SDS011;15592;53.656;7.276;2023-05-07T09:49:07;20.63;;;15.82;;
28335;SDS011;15592;53.656;7.276;2023-05-07T09:51:45;19.85;;;16.08;;
28335;SDS011;15592;53.656;7.276;2023-05-07T09:54:14;18.17;;;15.00;;
28335;SDS011;15592;53.656;7.276;2023-05-07T09:56:40;21.35;;;16.73;;
28335;SDS011;15592;53.656;7.276;2023-05-07T09:59:08;21.00;;;16.65;;
28335;SDS011;15592;53.656;7.276;2023-05-07T10:04:05;20.65;;;15.57;;
28335;SDS011;15592;53.656;7.276;2023-05-07T10:06:33;17.85;;;14.82;;
28335;SDS011;15592;53.656;7.276;2023-05-07T10:09:00;18.20;;;15.07;;
28335;SDS011;15592;53.656;7.276;2023-05-07T10:11:25;18.40;;;15.57;;
28335;SDS011;15592;53.656;7.276;2023-05-07T10:13:52;18.63;;;15.32;;
28335;SDS011;15592;53.656;7.276;2023-05-07T10:16:18;17.50;;;15.05;;
28335;SDS011;15592;53.656;7.276;2023-05-07T10:18:44;16.23;;;14.48;;
28335;SDS011;15592;53.656;7.276;2023-05-07T10:21:11;17.15;;;14.60;;
28335;SDS011;15592;53.656;7.276;2023-05-07T10:23:49;16.27;;;13.80;;
28335;SDS011;15592;53.656;7.276;2023-05-07T10:26:17;15.52;;;13.73;;
28335;SDS011;15592;53.656;7.276;2023-05-07T10:28:46;15.48;;;13.82;;
28335;SDS011;15592;53.656;7.276;2023-05-07T10:34:15;14.38;;;12.40;;
28335;SDS011;15592;53.656;7.276;2023-05-07T10:39:31;14.10;;;12.27;;
28335;SDS011;15592;53.656;7.276;2023-05-07T10:41:57;13.80;;;11.57;;
28335;SDS011;15592;53.656;7.276;2023-05-07T10:44:32;13.90;;;12.32;;
28335;SDS011;15592;53.656;7.276;2023-05-07T10:47:07;14.55;;;12.15;;
28335;SDS011;15592;53.656;7.276;2023-05-07T10:49:37;14.85;;;12.27;;
28335;SDS011;15592;53.656;7.276;2023-05-07T10:52:31;17.20;;;12.25;;
28335;SDS011;15592;53.656;7.276;2023-05-07T10:57:42;16.42;;;12.88;;
28335;SDS011;15592;53.656;7.276;2023-05-07T11:05:26;15.80;;;13.57;;
28335;SDS011;15592;53.656;7.276;2023-05-07T11:07:54;15.52;;;13.82;;
28335;SDS011;15592;53.656;7.276;2023-05-07T11:10:20;18.00;;;14.43;;
28335;SDS011;15592;53.656;7.276;2023-05-07T11:15:13;15.77;;;14.07;;
28335;SDS011;15592;53.656;7.276;2023-05-07T11:17:58;16.03;;;13.97;;
28335;SDS011;15592;53.656;7.276;2023-05-07T11:26:04;14.27;;;12.25;;
28335;SDS011;15592;53.656;7.276;2023-05-07T11:28:37;14.25;;;12.35;;
28335;SDS011;15592;53.656;7.276;2023-05-07T11:31:04;13.93;;;12.40;;
28335;SDS011;15592;53.656;7.276;2023-05-07T11:33:30;14.90;;;12.70;;
28335;SDS011;15592;53.656;7.276;2023-05-07T11:35:56;14.57;;;12.10;;
28335;SDS011;15592;53.656;7.276;2023-05-07T11:38:23;13.32;;;11.20;;
28335;SDS011;15592;53.656;7.276;2023-05-07T11:40:53;14.75;;;13.15;;
28335;SDS011;15592;53.656;7.276;2023-05-07T11:43:20;14.77;;;13.18;;
28335;SDS011;15592;53.656;7.276;2023-05-07T11:45:46;14.63;;;12.98;;
28335;SDS011;15592;53.656;7.276;2023-05-07T11:48:16;15.70;;;12.38;;
28335;SDS011;15592;53.656;7.276;2023-05-07T11:50:59;14.27;;;12.23;;
28335;SDS011;15592;53.656;7.276;2023-05-07T11:53:27;12.80;;;11.50;;
28335;SDS011;15592;53.656;7.276;2023-05-07T11:55:56;12.85;;;11.48;;
28335;SDS011;15592;53.656;7.276;2023-05-07T11:58:22;11.75;;;10.55;;
28335;SDS011;15592;53.656;7.276;2023-05-07T12:00:53;12.32;;;11.02;;
28335;SDS011;15592;53.656;7.276;2023-05-07T12:03:19;13.32;;;11.55;;
28335;SDS011;15592;53.656;7.276;2023-05-07T12:05:46;13.05;;;10.23;;
28335;SDS011;15592;53.656;7.276;2023-05-07T12:08:15;11.75;;;10.18;;
28335;SDS011;15592;53.656;7.276;2023-05-07T12:10:42;11.90;;;10.67;;
28335;SDS011;15592;53.656;7.276;2023-05-07T12:13:18;14.80;;;10.80;;
28335;SDS011;15592;53.656;7.276;2023-05-07T12:15:44;11.35;;;10.23;;
28335;SDS011;15592;53.656;7.276;2023-05-07T12:18:11;12.55;;;10.63;;
28335;SDS011;15592;53.656;7.276;2023-05-07T12:20:37;12.27;;;10.32;;
28335;SDS011;15592;53.656;7.276;2023-05-07T12:23:03;12.63;;;10.77;;
28335;SDS011;15592;53.656;7.276;2023-05-07T12:25:30;12.15;;;10.90;;
28335;SDS011;15592;53.656;7.276;2023-05-07T12:28:03;12.55;;;11.23;;
28335;SDS011;15592;53.656;7.276;2023-05-07T12:30:30;12.73;;;11.10;;
28335;SDS011;15592;53.656;7.276;2023-05-07T12:32:57;12.25;;;10.90;;
28335;SDS011;15592;53.656;7.276;2023-05-07T12:35:36;12.13;;;10.05;;
28335;SDS011;15592;53.656;7.276;2023-05-07T12:38:06;12.38;;;11.07;;
28335;SDS011;15592;53.656;7.276;2023-05-07T12:43:06;12.23;;;11.00;;
28335;SDS011;15592;53.656;7.276;2023-05-07T12:45:36;12.48;;;11.02;;
28335;SDS011;15592;53.656;7.276;2023-05-07T12:48:03;12.40;;;11.10;;
28335;SDS011;15592;53.656;7.276;2023-05-07T12:50:32;12.48;;;11.07;;
28335;SDS011;15592;53.656;7.276;2023-05-07T12:52:58;13.48;;;12.07;;
28335;SDS011;15592;53.656;7.276;2023-05-07T12:55:24;12.88;;;11.57;;
28335;SDS011;15592;53.656;7.276;2023-05-07T12:57:50;15.43;;;12.27;;
28335;SDS011;15592;53.656;7.276;2023-05-07T13:00:17;12.02;;;10.68;;
28335;SDS011;15592;53.656;7.276;2023-05-07T13:02:57;12.27;;;11.07;;
28335;SDS011;15592;53.656;7.276;2023-05-07T13:05:23;13.80;;;11.68;;
28335;SDS011;15592;53.656;7.276;2023-05-07T13:07:52;13.88;;;11.40;;
28335;SDS011;15592;53.656;7.276;2023-05-07T13:10:22;14.02;;;12.07;;
28335;SDS011;15592;53.656;7.276;2023-05-07T13:12:48;14.18;;;11.25;;
28335;SDS011;15592;53.656;7.276;2023-05-07T13:15:14;13.35;;;11.20;;
28335;SDS011;15592;53.656;7.276;2023-05-07T13:17:40;12.85;;;10.63;;
28335;SDS011;15592;53.656;7.276;2023-05-07T13:20:06;12.80;;;11.43;;
28335;SDS011;15592;53.656;7.276;2023-05-07T13:22:33;11.98;;;10.68;;
28335;SDS011;15592;53.656;7.276;2023-05-07T13:24:59;13.10;;;11.70;;
28335;SDS011;15592;53.656;7.276;2023-05-07T13:27:25;13.75;;;12.05;;
28335;SDS011;15592;53.656;7.276;2023-05-07T13:29:51;13.52;;;12.07;;
28335;SDS011;15592;53.656;7.276;2023-05-07T13:32:16;14.63;;;12.40;;
28335;SDS011;15592;53.656;7.276;2023-05-07T13:34:42;13.02;;;11.73;;
28335;SDS011;15592;53.656;7.276;2023-05-07T13:37:08;12.55;;;11.25;;
28335;SDS011;15592;53.656;7.276;2023-05-07T13:39:33;12.75;;;11.43;;
28335;SDS011;15592;53.656;7.276;2023-05-07T13:41:59;13.05;;;11.63;;
28335;SDS011;15592;53.656;7.276;2023-05-07T13:44:25;12.63;;;11.32;;
28335;SDS011;15592;53.656;7.276;2023-05-07T13:46:51;11.60;;;10.40;;
28335;SDS011;15592;53.656;7.276;2023-05-07T13:49:17;13.07;;;11.63;;
28335;SDS011;15592;53.656;7.276;2023-05-07T13:51:42;14.40;;;11.88;;
28335;SDS011;15592;53.656;7.276;2023-05-07T13:54:08;13.73;;;12.32;;
28335;SDS011;15592;53.656;7.276;2023-05-07T13:56:34;13.10;;;11.70;;
28335;SDS011;15592;53.656;7.276;2023-05-07T13:59:00;13.35;;;11.73;;
28335;SDS011;15592;53.656;7.276;2023-05-07T14:01:25;13.23;;;11.93;;
28335;SDS011;15592;53.656;7.276;2023-05-07T14:03:51;13.88;;;11.98;;
28335;SDS011;15592;53.656;7.276;2023-05-07T14:06:17;13.80;;;12.40;;
28335;SDS011;15592;53.656;7.276;2023-05-07T14:08:42;14.32;;;12.43;;
28335;SDS011;15592;53.656;7.276;2023-05-07T14:11:08;13.55;;;11.52;;
28335;SDS011;15592;53.656;7.276;2023-05-07T14:13:33;13.75;;;11.93;;
28335;SDS011;15592;53.656;7.276;2023-05-07T14:15:59;13.70;;;11.52;;
28335;SDS011;15592;53.656;7.276;2023-05-07T14:18:25;12.63;;;11.13;;
28335;SDS011;15592;53.656;7.276;2023-05-07T14:20:51;13.70;;;12.30;;
28335;SDS011;15592;53.656;7.276;2023-05-07T14:23:17;13.05;;;11.60;;
28335;SDS011;15592;53.656;7.276;2023-05-07T14:25:44;13.80;;;11.20;;
28335;SDS011;15592;53.656;7.276;2023-05-07T14:28:12;13.32;;;11.93;;
28335;SDS011;15592;53.656;7.276;2023-05-07T14:30:38;13.45;;;12.05;;
28335;SDS011;15592;53.656;7.276;2023-05-07T14:33:03;13.25;;;11.65;;
28335;SDS011;15592;53.656;7.276;2023-05-07T14:35:29;13.05;;;11.68;;
28335;SDS011;15592;53.656;7.276;2023-05-07T14:37:55;12.60;;;11.20;;
28335;SDS011;15592;53.656;7.276;2023-05-07T14:40:21;12.93;;;11.32;;
28335;SDS011;15592;53.656;7.276;2023-05-07T14:42:46;12.85;;;10.80;;
28335;SDS011;15592;53.656;7.276;2023-05-07T14:45:15;13.15;;;10.90;;